sensor_id;sensor_type;location;lat;lon;timestamp;temperature;humidity
65046;DHT22;54657;52.022;5.534;2023-12-20T00:01:46;8.60;99.90
65046;DHT22;54657;52.022;5.534;2023-12-20T00:04:11;8.60;99.90
65046;DHT22;54657;52.022;5.534;2023-12-20T00:06:37;8.60;99.90
65046;DHT22;54657;52.022;5.534;2023-12-20T00:09:02;8.60;99.90
65046;DHT22;54657;52.022;5.534;2023-12-20T00:11:28;8.60;99.90
65046;DHT22;54657;52.022;5.534;2023-12-20T00:13:54;8.60;99.90
65046;DHT22;54657;52.022;5.534;2023-12-20T00:16:19;8.50;99.90
65046;DHT22;54657;52.022;5.534;2023-12-20T00:18:45;8.60;99.90
65046;DHT22;54657;52.022;5.534;2023-12-20T00:21:10;8.60;99.90
65046;DHT22;54657;52.022;5.534;2023-12-20T00:23:36;8.50;99.90
65046;DHT22;54657;52.022;5.534;2023-12-20T00:26:01;8.50;99.90
65046;DHT22;54657;52.022;5.534;2023-12-20T00:28:27;8.50;99.90
65046;DHT22;54657;52.022;5.534;2023-12-20T00:30:52;8.50;99.90
65046;DHT22;54657;52.022;5.534;2023-12-20T00:33:18;8.50;99.90
65046;DHT22;54657;52.022;5.534;2023-12-20T00:35:44;8.50;99.90
65046;DHT22;54657;52.022;5.534;2023-12-20T00:38:10;8.50;99.90
65046;DHT22;54657;52.022;5.534;2023-12-20T00:40:36;8.40;99.90
65046;DHT22;54657;52.022;5.534;2023-12-20T00:43:02;8.40;99.90
65046;DHT22;54657;52.022;5.534;2023-12-20T00:45:28;8.40;99.90
65046;DHT22;54657;52.022;5.534;2023-12-20T00:47:54;8.40;99.90
65046;DHT22;54657;52.022;5.534;2023-12-20T00:50:19;8.30;99.90
65046;DHT22;54657;52.022;5.534;2023-12-20T00:52:47;8.30;99.90
65046;DHT22;54657;52.022;5.534;2023-12-20T00:55:13;8.30;99.90
65046;DHT22;54657;52.022;5.534;2023-12-20T00:57:39;8.30;99.90
65046;DHT22;54657;52.022;5.534;2023-12-20T01:00:05;8.30;99.90
65046;DHT22;54657;52.022;5.534;2023-12-20T01:02:31;8.30;99.90
65046;DHT22;54657;52.022;5.534;2023-12-20T01:04:56;8.20;99.90
65046;DHT22;54657;52.022;5.534;2023-12-20T01:07:22;8.20;99.90
65046;DHT22;54657;52.022;5.534;2023-12-20T01:09:47;8.10;99.90
65046;DHT22;54657;52.022;5.534;2023-12-20T01:12:13;8.10;99.90
65046;DHT22;54657;52.022;5.534;2023-12-20T01:14:39;8.10;99.90
65046;DHT22;54657;52.022;5.534;2023-12-20T01:17:05;8.10;99.90
65046;DHT22;54657;52.022;5.534;2023-12-20T01:19:30;8.10;99.90
65046;DHT22;54657;52.022;5.534;2023-12-20T01:21:56;8.10;99.90
65046;DHT22;54657;52.022;5.534;2023-12-20T01:24:21;8.10;99.90
65046;DHT22;54657;52.022;5.534;2023-12-20T01:26:47;8.10;99.90
65046;DHT22;54657;52.022;5.534;2023-12-20T01:29:13;8.00;99.90
65046;DHT22;54657;52.022;5.534;2023-12-20T01:31:39;8.00;99.90
65046;DHT22;54657;52.022;5.534;2023-12-20T01:34:06;8.00;99.90
65046;DHT22;54657;52.022;5.534;2023-12-20T01:36:31;7.90;99.90
65046;DHT22;54657;52.022;5.534;2023-12-20T01:38:57;8.00;99.90
65046;DHT22;54657;52.022;5.534;2023-12-20T01:41:22;8.00;99.90
65046;DHT22;54657;52.022;5.534;2023-12-20T01:43:48;7.90;99.90
65046;DHT22;54657;52.022;5.534;2023-12-20T01:46:14;7.90;99.90
65046;DHT22;54657;52.022;5.534;2023-12-20T01:48:40;8.00;99.90
65046;DHT22;54657;52.022;5.534;2023-12-20T01:51:06;7.90;99.90
65046;DHT22;54657;52.022;5.534;2023-12-20T01:53:32;7.90;99.90
65046;DHT22;54657;52.022;5.534;2023-12-20T01:55:58;7.90;99.90
65046;DHT22;54657;52.022;5.534;2023-12-20T01:58:24;7.90;99.90
65046;DHT22;54657;52.022;5.534;2023-12-20T02:00:51;8.00;99.90
65046;DHT22;54657;52.022;5.534;2023-12-20T02:03:17;8.00;99.90
65046;DHT22;54657;52.022;5.534;2023-12-20T02:05:44;8.00;99.90
65046;DHT22;54657;52.022;5.534;2023-12-20T02:08:09;8.00;99.90
65046;DHT22;54657;52.022;5.534;2023-12-20T02:10:35;8.00;99.90
65046;DHT22;54657;52.022;5.534;2023-12-20T02:13:01;8.00;99.90
65046;DHT22;54657;52.022;5.534;2023-12-20T02:15:26;7.90;99.90
65046;DHT22;54657;52.022;5.534;2023-12-20T02:17:52;7.90;99.90
65046;DHT22;54657;52.022;5.534;2023-12-20T02:20:17;7.90;99.90
65046;DHT22;54657;52.022;5.534;2023-12-20T02:22:43;7.90;99.90
65046;DHT22;54657;52.022;5.534;2023-12-20T02:25:09;7.90;99.90
65046;DHT22;54657;52.022;5.534;2023-12-20T02:27:34;8.00;99.90
65046;DHT22;54657;52.022;5.534;2023-12-20T02:30:00;8.00;99.90
65046;DHT22;54657;52.022;5.534;2023-12-20T02:32:26;8.00;99.90
65046;DHT22;54657;52.022;5.534;2023-12-20T02:34:53;8.00;99.90
65046;DHT22;54657;52.022;5.534;2023-12-20T02:37:18;8.00;99.90
65046;DHT22;54657;52.022;5.534;2023-12-20T02:39:44;8.10;99.90
65046;DHT22;54657;52.022;5.534;2023-12-20T02:42:10;8.00;99.90
65046;DHT22;54657;52.022;5.534;2023-12-20T02:44:35;8.10;99.90
65046;DHT22;54657;52.022;5.534;2023-12-20T02:47:02;8.00;99.90
65046;DHT22;54657;52.022;5.534;2023-12-20T02:49:27;8.00;99.90
65046;DHT22;54657;52.022;5.534;2023-12-20T02:51:53;8.00;99.90
65046;DHT22;54657;52.022;5.534;2023-12-20T02:54:18;8.00;99.90
65046;DHT22;54657;52.022;5.534;2023-12-20T02:56:44;7.90;99.90
65046;DHT22;54657;52.022;5.534;2023-12-20T02:59:09;8.00;99.90
65046;DHT22;54657;52.022;5.534;2023-12-20T03:01:35;8.00;99.90
65046;DHT22;54657;52.022;5.534;2023-12-20T03:04:06;8.00;99.90
65046;DHT22;54657;52.022;5.534;2023-12-20T03:06:32;8.00;99.90
65046;DHT22;54657;52.022;5.534;2023-12-20T03:08:57;8.00;99.90
65046;DHT22;54657;52.022;5.534;2023-12-20T03:11:26;8.00;99.90
65046;DHT22;54657;52.022;5.534;2023-12-20T03:13:52;8.00;99.90
65046;DHT22;54657;52.022;5.534;2023-12-20T03:16:18;8.00;99.90
65046;DHT22;54657;52.022;5.534;2023-12-20T03:18:44;8.00;99.90
65046;DHT22;54657;52.022;5.534;2023-12-20T03:21:09;8.00;99.90
65046;DHT22;54657;52.022;5.534;2023-12-20T03:23:35;8.00;99.90
65046;DHT22;54657;52.022;5.534;2023-12-20T03:26:00;8.10;99.90
65046;DHT22;54657;52.022;5.534;2023-12-20T03:28:27;8.00;99.90
65046;DHT22;54657;52.022;5.534;2023-12-20T03:30:52;8.10;99.90
65046;DHT22;54657;52.022;5.534;2023-12-20T03:33:18;8.10;99.90
65046;DHT22;54657;52.022;5.534;2023-12-20T03:35:44;8.10;99.90
65046;DHT22;54657;52.022;5.534;2023-12-20T03:38:09;8.10;99.90
65046;DHT22;54657;52.022;5.534;2023-12-20T03:40:35;8.10;99.90
65046;DHT22;54657;52.022;5.534;2023-12-20T03:43:00;8.10;99.90
65046;DHT22;54657;52.022;5.534;2023-12-20T03:45:26;8.10;99.90
65046;DHT22;54657;52.022;5.534;2023-12-20T03:47:51;8.10;99.90
65046;DHT22;54657;52.022;5.534;2023-12-20T03:50:25;8.10;99.90
65046;DHT22;54657;52.022;5.534;2023-12-20T03:52:51;8.10;99.90
65046;DHT22;54657;52.022;5.534;2023-12-20T03:55:16;8.10;99.90
65046;DHT22;54657;52.022;5.534;2023-12-20T03:57:42;8.10;99.90
65046;DHT22;54657;52.022;5.534;2023-12-20T04:00:08;8.10;99.90
65046;DHT22;54657;52.022;5.534;2023-12-20T04:02:40;8.10;99.90
65046;DHT22;54657;52.022;5.534;2023-12-20T04:05:07;8.10;99.90
65046;DHT22;54657;52.022;5.534;2023-12-20T04:07:33;8.10;99.90
65046;DHT22;54657;52.022;5.534;2023-12-20T04:09:58;8.10;99.90
65046;DHT22;54657;52.022;5.534;2023-12-20T04:12:24;8.10;99.90
65046;DHT22;54657;52.022;5.534;2023-12-20T04:14:50;8.10;99.90
65046;DHT22;54657;52.022;5.534;2023-12-20T04:17:16;8.10;99.90
65046;DHT22;54657;52.022;5.534;2023-12-20T04:19:42;8.20;99.90
65046;DHT22;54657;52.022;5.534;2023-12-20T04:22:08;8.20;99.90
65046;DHT22;54657;52.022;5.534;2023-12-20T04:24:33;8.20;99.90
65046;DHT22;54657;52.022;5.534;2023-12-20T04:26:59;8.20;99.90
65046;DHT22;54657;52.022;5.534;2023-12-20T04:29:25;8.20;99.90
65046;DHT22;54657;52.022;5.534;2023-12-20T04:31:50;8.30;99.90
65046;DHT22;54657;52.022;5.534;2023-12-20T04:34:17;8.30;99.90
65046;DHT22;54657;52.022;5.534;2023-12-20T04:36:43;8.40;99.90
65046;DHT22;54657;52.022;5.534;2023-12-20T04:39:09;8.40;99.90
65046;DHT22;54657;52.022;5.534;2023-12-20T04:41:34;8.30;99.90
65046;DHT22;54657;52.022;5.534;2023-12-20T04:44:00;8.40;99.90
65046;DHT22;54657;52.022;5.534;2023-12-20T04:46:26;8.40;99.90
65046;DHT22;54657;52.022;5.534;2023-12-20T04:48:52;8.40;99.90
65046;DHT22;54657;52.022;5.534;2023-12-20T04:51:17;8.40;99.90
65046;DHT22;54657;52.022;5.534;2023-12-20T04:53:43;8.40;99.90
65046;DHT22;54657;52.022;5.534;2023-12-20T04:56:08;8.50;99.90
65046;DHT22;54657;52.022;5.534;2023-12-20T04:58:34;8.40;99.90
65046;DHT22;54657;52.022;5.534;2023-12-20T05:00:59;8.40;99.90
65046;DHT22;54657;52.022;5.534;2023-12-20T05:03:25;8.40;99.90
65046;DHT22;54657;52.022;5.534;2023-12-20T05:05:51;8.50;99.90
65046;DHT22;54657;52.022;5.534;2023-12-20T05:08:16;8.50;99.90
65046;DHT22;54657;52.022;5.534;2023-12-20T05:10:42;8.50;99.90
65046;DHT22;54657;52.022;5.534;2023-12-20T05:13:07;8.50;99.90
65046;DHT22;54657;52.022;5.534;2023-12-20T05:15:33;8.50;99.90
65046;DHT22;54657;52.022;5.534;2023-12-20T05:17:59;8.50;99.90
65046;DHT22;54657;52.022;5.534;2023-12-20T05:20:24;8.50;99.90
65046;DHT22;54657;52.022;5.534;2023-12-20T05:22:50;8.60;99.90
65046;DHT22;54657;52.022;5.534;2023-12-20T05:25:15;8.60;99.90
65046;DHT22;54657;52.022;5.534;2023-12-20T05:27:41;8.60;99.90
65046;DHT22;54657;52.022;5.534;2023-12-20T05:30:07;8.60;99.90
65046;DHT22;54657;52.022;5.534;2023-12-20T05:32:32;8.60;99.90
65046;DHT22;54657;52.022;5.534;2023-12-20T05:34:58;8.60;99.80
65046;DHT22;54657;52.022;5.534;2023-12-20T05:37:23;8.60;99.90
65046;DHT22;54657;52.022;5.534;2023-12-20T05:39:49;8.60;99.80
65046;DHT22;54657;52.022;5.534;2023-12-20T05:42:15;8.60;99.80
65046;DHT22;54657;52.022;5.534;2023-12-20T05:44:40;8.70;99.90
65046;DHT22;54657;52.022;5.534;2023-12-20T05:47:06;8.70;99.90
65046;DHT22;54657;52.022;5.534;2023-12-20T05:49:31;8.70;99.80
65046;DHT22;54657;52.022;5.534;2023-12-20T05:51:57;8.70;99.80
65046;DHT22;54657;52.022;5.534;2023-12-20T05:54:22;8.70;99.80
65046;DHT22;54657;52.022;5.534;2023-12-20T05:56:48;8.70;99.80
65046;DHT22;54657;52.022;5.534;2023-12-20T05:59:14;8.70;99.80
65046;DHT22;54657;52.022;5.534;2023-12-20T06:01:39;8.70;99.80
65046;DHT22;54657;52.022;5.534;2023-12-20T06:04:05;8.70;99.80
65046;DHT22;54657;52.022;5.534;2023-12-20T06:06:30;8.70;99.90
65046;DHT22;54657;52.022;5.534;2023-12-20T06:08:56;8.70;99.90
65046;DHT22;54657;52.022;5.534;2023-12-20T06:11:23;8.70;99.90
65046;DHT22;54657;52.022;5.534;2023-12-20T06:13:49;8.70;99.80
65046;DHT22;54657;52.022;5.534;2023-12-20T06:16:17;8.70;99.90
65046;DHT22;54657;52.022;5.534;2023-12-20T06:18:43;8.80;99.80
65046;DHT22;54657;52.022;5.534;2023-12-20T06:21:08;8.70;99.70
65046;DHT22;54657;52.022;5.534;2023-12-20T06:23:38;8.80;99.70
65046;DHT22;54657;52.022;5.534;2023-12-20T06:26:03;8.70;99.80
65046;DHT22;54657;52.022;5.534;2023-12-20T06:28:29;8.70;99.80
65046;DHT22;54657;52.022;5.534;2023-12-20T06:30:55;8.70;99.80
65046;DHT22;54657;52.022;5.534;2023-12-20T06:33:20;8.70;99.60
65046;DHT22;54657;52.022;5.534;2023-12-20T06:35:48;8.70;99.70
65046;DHT22;54657;52.022;5.534;2023-12-20T06:38:13;8.70;99.70
65046;DHT22;54657;52.022;5.534;2023-12-20T06:40:39;8.70;99.80
65046;DHT22;54657;52.022;5.534;2023-12-20T06:43:04;8.70;99.80
65046;DHT22;54657;52.022;5.534;2023-12-20T06:45:32;8.70;99.70
65046;DHT22;54657;52.022;5.534;2023-12-20T06:47:57;8.70;99.80
65046;DHT22;54657;52.022;5.534;2023-12-20T06:50:23;8.60;99.70
65046;DHT22;54657;52.022;5.534;2023-12-20T06:52:49;8.60;99.80
65046;DHT22;54657;52.022;5.534;2023-12-20T06:55:15;8.60;99.60
65046;DHT22;54657;52.022;5.534;2023-12-20T06:57:40;8.70;99.70
65046;DHT22;54657;52.022;5.534;2023-12-20T07:00:07;8.70;99.60
65046;DHT22;54657;52.022;5.534;2023-12-20T07:02:34;8.70;99.60
65046;DHT22;54657;52.022;5.534;2023-12-20T07:05:00;8.70;99.60
65046;DHT22;54657;52.022;5.534;2023-12-20T07:07:25;8.70;99.60
65046;DHT22;54657;52.022;5.534;2023-12-20T07:09:51;8.80;99.60
65046;DHT22;54657;52.022;5.534;2023-12-20T07:12:17;8.70;99.50
65046;DHT22;54657;52.022;5.534;2023-12-20T07:14:45;8.80;99.50
65046;DHT22;54657;52.022;5.534;2023-12-20T07:17:10;8.80;99.50
65046;DHT22;54657;52.022;5.534;2023-12-20T07:19:41;8.80;99.40
65046;DHT22;54657;52.022;5.534;2023-12-20T07:22:07;8.70;99.50
65046;DHT22;54657;52.022;5.534;2023-12-20T07:24:33;8.80;99.50
65046;DHT22;54657;52.022;5.534;2023-12-20T07:27:02;8.80;99.50
65046;DHT22;54657;52.022;5.534;2023-12-20T07:29:27;8.80;99.50
65046;DHT22;54657;52.022;5.534;2023-12-20T07:31:53;8.80;99.50
65046;DHT22;54657;52.022;5.534;2023-12-20T07:34:20;8.80;99.50
65046;DHT22;54657;52.022;5.534;2023-12-20T07:36:45;8.80;99.50
65046;DHT22;54657;52.022;5.534;2023-12-20T07:39:11;8.80;99.40
65046;DHT22;54657;52.022;5.534;2023-12-20T07:41:36;8.90;99.40
65046;DHT22;54657;52.022;5.534;2023-12-20T07:44:03;8.80;99.40
65046;DHT22;54657;52.022;5.534;2023-12-20T07:46:29;8.80;99.40
65046;DHT22;54657;52.022;5.534;2023-12-20T07:48:54;8.80;99.40
65046;DHT22;54657;52.022;5.534;2023-12-20T07:51:20;8.90;99.40
65046;DHT22;54657;52.022;5.534;2023-12-20T07:53:46;8.90;99.40
65046;DHT22;54657;52.022;5.534;2023-12-20T07:56:19;8.90;99.30
65046;DHT22;54657;52.022;5.534;2023-12-20T07:58:45;8.90;99.30
65046;DHT22;54657;52.022;5.534;2023-12-20T08:01:11;8.90;99.30
65046;DHT22;54657;52.022;5.534;2023-12-20T08:03:37;8.90;99.30
65046;DHT22;54657;52.022;5.534;2023-12-20T08:06:03;9.00;99.40
65046;DHT22;54657;52.022;5.534;2023-12-20T08:08:29;9.00;99.40
65046;DHT22;54657;52.022;5.534;2023-12-20T08:10:54;9.00;99.30
65046;DHT22;54657;52.022;5.534;2023-12-20T08:13:20;9.00;99.30
65046;DHT22;54657;52.022;5.534;2023-12-20T08:15:50;9.00;99.30
65046;DHT22;54657;52.022;5.534;2023-12-20T08:18:15;9.00;99.30
65046;DHT22;54657;52.022;5.534;2023-12-20T08:20:41;9.00;99.30
65046;DHT22;54657;52.022;5.534;2023-12-20T08:23:06;9.00;99.20
65046;DHT22;54657;52.022;5.534;2023-12-20T08:25:32;9.10;99.20
65046;DHT22;54657;52.022;5.534;2023-12-20T08:27:57;9.00;99.10
65046;DHT22;54657;52.022;5.534;2023-12-20T08:30:23;9.00;99.20
65046;DHT22;54657;52.022;5.534;2023-12-20T08:32:49;9.00;99.20
65046;DHT22;54657;52.022;5.534;2023-12-20T08:35:14;9.10;99.20
65046;DHT22;54657;52.022;5.534;2023-12-20T08:37:40;9.10;99.20
65046;DHT22;54657;52.022;5.534;2023-12-20T08:40:06;9.10;99.10
65046;DHT22;54657;52.022;5.534;2023-12-20T08:42:31;9.10;99.20
65046;DHT22;54657;52.022;5.534;2023-12-20T08:44:57;9.10;99.10
65046;DHT22;54657;52.022;5.534;2023-12-20T08:47:24;9.10;99.10
65046;DHT22;54657;52.022;5.534;2023-12-20T08:49:50;9.10;99.10
65046;DHT22;54657;52.022;5.534;2023-12-20T08:52:15;9.10;99.10
65046;DHT22;54657;52.022;5.534;2023-12-20T08:54:41;9.10;99.10
65046;DHT22;54657;52.022;5.534;2023-12-20T08:57:06;9.10;99.10
65046;DHT22;54657;52.022;5.534;2023-12-20T08:59:32;9.10;99.10
65046;DHT22;54657;52.022;5.534;2023-12-20T09:01:58;9.10;99.10
65046;DHT22;54657;52.022;5.534;2023-12-20T09:04:24;9.20;99.10
65046;DHT22;54657;52.022;5.534;2023-12-20T09:06:50;9.10;99.00
65046;DHT22;54657;52.022;5.534;2023-12-20T09:09:15;9.20;99.20
65046;DHT22;54657;52.022;5.534;2023-12-20T09:11:41;9.10;99.10
65046;DHT22;54657;52.022;5.534;2023-12-20T09:14:07;9.20;99.30
65046;DHT22;54657;52.022;5.534;2023-12-20T09:16:33;9.20;99.30
65046;DHT22;54657;52.022;5.534;2023-12-20T09:18:58;9.20;99.30
65046;DHT22;54657;52.022;5.534;2023-12-20T09:21:24;9.20;99.30
65046;DHT22;54657;52.022;5.534;2023-12-20T09:23:50;9.20;99.40
65046;DHT22;54657;52.022;5.534;2023-12-20T09:26:15;9.10;99.40
65046;DHT22;54657;52.022;5.534;2023-12-20T09:28:41;9.20;99.50
65046;DHT22;54657;52.022;5.534;2023-12-20T09:31:07;9.10;99.60
65046;DHT22;54657;52.022;5.534;2023-12-20T09:33:33;9.20;99.60
65046;DHT22;54657;52.022;5.534;2023-12-20T09:35:59;9.10;99.60
65046;DHT22;54657;52.022;5.534;2023-12-20T09:38:25;9.20;99.70
65046;DHT22;54657;52.022;5.534;2023-12-20T09:40:50;9.20;99.60
65046;DHT22;54657;52.022;5.534;2023-12-20T09:43:19;9.20;99.70
65046;DHT22;54657;52.022;5.534;2023-12-20T09:45:47;9.20;99.60
65046;DHT22;54657;52.022;5.534;2023-12-20T09:48:13;9.30;99.60
65046;DHT22;54657;52.022;5.534;2023-12-20T09:50:41;9.30;99.60
65046;DHT22;54657;52.022;5.534;2023-12-20T09:53:14;9.30;99.60
65046;DHT22;54657;52.022;5.534;2023-12-20T09:55:41;9.30;99.60
65046;DHT22;54657;52.022;5.534;2023-12-20T09:58:07;9.30;99.60
65046;DHT22;54657;52.022;5.534;2023-12-20T10:00:34;9.30;99.50
65046;DHT22;54657;52.022;5.534;2023-12-20T10:03:01;9.40;99.50
65046;DHT22;54657;52.022;5.534;2023-12-20T10:05:28;9.40;99.40
65046;DHT22;54657;52.022;5.534;2023-12-20T10:07:54;9.50;99.40
65046;DHT22;54657;52.022;5.534;2023-12-20T10:10:20;9.50;99.40
65046;DHT22;54657;52.022;5.534;2023-12-20T10:15:28;9.50;99.20
65046;DHT22;54657;52.022;5.534;2023-12-20T10:17:54;9.60;99.30
65046;DHT22;54657;52.022;5.534;2023-12-20T10:20:20;9.60;99.50
65046;DHT22;54657;52.022;5.534;2023-12-20T10:22:46;9.60;99.10
65046;DHT22;54657;52.022;5.534;2023-12-20T10:25:12;9.60;99.10
65046;DHT22;54657;52.022;5.534;2023-12-20T10:27:37;9.70;99.10
65046;DHT22;54657;52.022;5.534;2023-12-20T10:30:03;9.70;99.00
65046;DHT22;54657;52.022;5.534;2023-12-20T10:32:30;9.70;99.00
65046;DHT22;54657;52.022;5.534;2023-12-20T10:34:56;9.70;99.00
65046;DHT22;54657;52.022;5.534;2023-12-20T10:37:22;9.70;99.00
65046;DHT22;54657;52.022;5.534;2023-12-20T10:39:52;9.80;98.90
65046;DHT22;54657;52.022;5.534;2023-12-20T10:42:22;9.80;98.90
65046;DHT22;54657;52.022;5.534;2023-12-20T10:44:48;9.80;98.90
65046;DHT22;54657;52.022;5.534;2023-12-20T10:47:14;9.80;98.80
65046;DHT22;54657;52.022;5.534;2023-12-20T10:49:40;9.90;98.90
65046;DHT22;54657;52.022;5.534;2023-12-20T10:52:07;9.90;98.80
65046;DHT22;54657;52.022;5.534;2023-12-20T10:54:34;9.90;98.70
65046;DHT22;54657;52.022;5.534;2023-12-20T10:57:00;9.90;98.70
65046;DHT22;54657;52.022;5.534;2023-12-20T10:59:29;10.00;98.70
65046;DHT22;54657;52.022;5.534;2023-12-20T11:01:57;10.00;98.70
65046;DHT22;54657;52.022;5.534;2023-12-20T11:04:31;10.00;98.70
65046;DHT22;54657;52.022;5.534;2023-12-20T11:07:10;10.10;98.60
65046;DHT22;54657;52.022;5.534;2023-12-20T11:09:40;10.10;98.50
65046;DHT22;54657;52.022;5.534;2023-12-20T11:12:15;10.10;98.50
65046;DHT22;54657;52.022;5.534;2023-12-20T11:14:51;10.10;98.50
65046;DHT22;54657;52.022;5.534;2023-12-20T11:17:17;10.10;98.50
65046;DHT22;54657;52.022;5.534;2023-12-20T11:20:03;10.20;98.60
65046;DHT22;54657;52.022;5.534;2023-12-20T11:22:32;10.20;97.50
65046;DHT22;54657;52.022;5.534;2023-12-20T11:25:04;10.30;98.40
65046;DHT22;54657;52.022;5.534;2023-12-20T11:27:30;10.30;98.20
65046;DHT22;54657;52.022;5.534;2023-12-20T11:29:57;10.30;98.20
65046;DHT22;54657;52.022;5.534;2023-12-20T11:37:37;10.30;97.80
65046;DHT22;54657;52.022;5.534;2023-12-20T11:40:05;10.20;98.00
65046;DHT22;54657;52.022;5.534;2023-12-20T11:42:38;10.30;98.20
65046;DHT22;54657;52.022;5.534;2023-12-20T11:45:04;10.30;97.90
65046;DHT22;54657;52.022;5.534;2023-12-20T11:47:31;10.30;98.10
65046;DHT22;54657;52.022;5.534;2023-12-20T11:49:57;10.40;98.00
65046;DHT22;54657;52.022;5.534;2023-12-20T11:52:22;10.40;97.90
65046;DHT22;54657;52.022;5.534;2023-12-20T11:54:48;10.50;98.00
65046;DHT22;54657;52.022;5.534;2023-12-20T11:57:14;10.40;97.60
65046;DHT22;54657;52.022;5.534;2023-12-20T11:59:39;10.50;97.80
65046;DHT22;54657;52.022;5.534;2023-12-20T12:02:05;10.50;97.80
65046;DHT22;54657;52.022;5.534;2023-12-20T12:04:31;10.50;97.80
65046;DHT22;54657;52.022;5.534;2023-12-20T12:06:56;10.60;97.80
65046;DHT22;54657;52.022;5.534;2023-12-20T12:09:22;10.60;97.70
65046;DHT22;54657;52.022;5.534;2023-12-20T12:11:48;10.60;97.70
65046;DHT22;54657;52.022;5.534;2023-12-20T12:14:13;10.60;97.60
65046;DHT22;54657;52.022;5.534;2023-12-20T12:16:41;10.60;97.70
65046;DHT22;54657;52.022;5.534;2023-12-20T12:19:06;10.70;98.00
65046;DHT22;54657;52.022;5.534;2023-12-20T12:21:32;10.70;97.60
65046;DHT22;54657;52.022;5.534;2023-12-20T12:24:08;10.60;97.30
65046;DHT22;54657;52.022;5.534;2023-12-20T12:26:34;10.60;97.40
65046;DHT22;54657;52.022;5.534;2023-12-20T12:28:59;10.60;97.60
65046;DHT22;54657;52.022;5.534;2023-12-20T12:31:25;10.60;97.60
65046;DHT22;54657;52.022;5.534;2023-12-20T12:33:52;10.50;97.70
65046;DHT22;54657;52.022;5.534;2023-12-20T12:36:17;10.60;97.60
65046;DHT22;54657;52.022;5.534;2023-12-20T12:38:43;10.50;97.70
65046;DHT22;54657;52.022;5.534;2023-12-20T12:41:09;10.50;97.60
65046;DHT22;54657;52.022;5.534;2023-12-20T12:43:37;10.50;97.30
65046;DHT22;54657;52.022;5.534;2023-12-20T12:46:03;10.50;97.50
65046;DHT22;54657;52.022;5.534;2023-12-20T12:48:29;10.50;97.50
65046;DHT22;54657;52.022;5.534;2023-12-20T12:50:54;10.50;97.60
65046;DHT22;54657;52.022;5.534;2023-12-20T12:53:24;10.50;97.50
65046;DHT22;54657;52.022;5.534;2023-12-20T12:55:50;10.50;97.50
65046;DHT22;54657;52.022;5.534;2023-12-20T12:58:15;10.60;97.50
65046;DHT22;54657;52.022;5.534;2023-12-20T13:00:41;10.60;97.40
65046;DHT22;54657;52.022;5.534;2023-12-20T13:03:07;10.60;97.60
65046;DHT22;54657;52.022;5.534;2023-12-20T13:05:33;10.60;97.40
65046;DHT22;54657;52.022;5.534;2023-12-20T13:07:59;10.60;97.50
65046;DHT22;54657;52.022;5.534;2023-12-20T13:10:25;10.60;97.40
65046;DHT22;54657;52.022;5.534;2023-12-20T13:12:50;10.70;97.50
65046;DHT22;54657;52.022;5.534;2023-12-20T13:15:17;10.70;97.60
65046;DHT22;54657;52.022;5.534;2023-12-20T13:17:42;10.70;97.60
65046;DHT22;54657;52.022;5.534;2023-12-20T13:20:08;10.70;97.50
65046;DHT22;54657;52.022;5.534;2023-12-20T13:22:34;10.70;97.40
65046;DHT22;54657;52.022;5.534;2023-12-20T13:24:59;10.60;97.60
65046;DHT22;54657;52.022;5.534;2023-12-20T13:27:25;10.70;97.70
65046;DHT22;54657;52.022;5.534;2023-12-20T13:29:50;10.70;97.60
65046;DHT22;54657;52.022;5.534;2023-12-20T13:32:16;10.70;97.60
65046;DHT22;54657;52.022;5.534;2023-12-20T13:34:41;10.70;97.60
65046;DHT22;54657;52.022;5.534;2023-12-20T13:37:07;10.70;97.70
65046;DHT22;54657;52.022;5.534;2023-12-20T13:39:32;10.80;97.60
65046;DHT22;54657;52.022;5.534;2023-12-20T13:41:58;10.70;97.30
65046;DHT22;54657;52.022;5.534;2023-12-20T13:44:24;10.80;97.40
65046;DHT22;54657;52.022;5.534;2023-12-20T13:46:49;10.70;97.50
65046;DHT22;54657;52.022;5.534;2023-12-20T13:49:15;10.80;97.50
65046;DHT22;54657;52.022;5.534;2023-12-20T13:51:41;10.80;97.50
65046;DHT22;54657;52.022;5.534;2023-12-20T13:54:06;10.70;97.40
65046;DHT22;54657;52.022;5.534;2023-12-20T13:56:32;10.70;97.40
65046;DHT22;54657;52.022;5.534;2023-12-20T13:58:58;10.70;97.40
65046;DHT22;54657;52.022;5.534;2023-12-20T14:01:25;10.70;97.30
65046;DHT22;54657;52.022;5.534;2023-12-20T14:03:51;10.70;97.40
65046;DHT22;54657;52.022;5.534;2023-12-20T14:06:17;10.80;97.40
65046;DHT22;54657;52.022;5.534;2023-12-20T14:08:43;10.80;97.30
65046;DHT22;54657;52.022;5.534;2023-12-20T14:11:09;10.80;97.20
65046;DHT22;54657;52.022;5.534;2023-12-20T14:13:34;10.70;97.30
65046;DHT22;54657;52.022;5.534;2023-12-20T14:16:00;10.80;97.20
65046;DHT22;54657;52.022;5.534;2023-12-20T14:18:27;10.70;97.10
65046;DHT22;54657;52.022;5.534;2023-12-20T14:20:53;10.70;97.00
65046;DHT22;54657;52.022;5.534;2023-12-20T14:23:19;10.70;97.10
65046;DHT22;54657;52.022;5.534;2023-12-20T14:25:45;10.70;97.40
65046;DHT22;54657;52.022;5.534;2023-12-20T14:28:10;10.70;97.10
65046;DHT22;54657;52.022;5.534;2023-12-20T14:30:39;10.70;97.10
65046;DHT22;54657;52.022;5.534;2023-12-20T14:33:05;10.70;97.10
65046;DHT22;54657;52.022;5.534;2023-12-20T14:35:30;10.70;97.10
65046;DHT22;54657;52.022;5.534;2023-12-20T14:37:56;10.70;97.00
65046;DHT22;54657;52.022;5.534;2023-12-20T14:40:22;10.70;97.00
65046;DHT22;54657;52.022;5.534;2023-12-20T14:42:48;10.70;97.00
65046;DHT22;54657;52.022;5.534;2023-12-20T14:45:15;10.70;97.10
65046;DHT22;54657;52.022;5.534;2023-12-20T14:47:41;10.70;97.10
65046;DHT22;54657;52.022;5.534;2023-12-20T14:50:07;10.70;97.10
65046;DHT22;54657;52.022;5.534;2023-12-20T14:52:33;10.60;97.20
65046;DHT22;54657;52.022;5.534;2023-12-20T14:55:00;10.60;97.30
65046;DHT22;54657;52.022;5.534;2023-12-20T14:57:26;10.60;97.30
65046;DHT22;54657;52.022;5.534;2023-12-20T14:59:52;10.60;97.30
65046;DHT22;54657;52.022;5.534;2023-12-20T15:02:18;10.60;97.20
65046;DHT22;54657;52.022;5.534;2023-12-20T15:04:44;10.60;97.30
65046;DHT22;54657;52.022;5.534;2023-12-20T15:07:09;10.60;97.30
65046;DHT22;54657;52.022;5.534;2023-12-20T15:09:35;10.60;97.30
65046;DHT22;54657;52.022;5.534;2023-12-20T15:12:01;10.60;97.30
65046;DHT22;54657;52.022;5.534;2023-12-20T15:14:26;10.50;97.40
65046;DHT22;54657;52.022;5.534;2023-12-20T15:16:53;10.50;97.30
65046;DHT22;54657;52.022;5.534;2023-12-20T15:19:21;10.50;97.40
65046;DHT22;54657;52.022;5.534;2023-12-20T15:21:46;10.50;97.40
65046;DHT22;54657;52.022;5.534;2023-12-20T15:24:12;10.50;97.40
65046;DHT22;54657;52.022;5.534;2023-12-20T15:26:43;10.50;97.50
65046;DHT22;54657;52.022;5.534;2023-12-20T15:29:09;10.50;97.50
65046;DHT22;54657;52.022;5.534;2023-12-20T15:31:36;10.50;97.40
65046;DHT22;54657;52.022;5.534;2023-12-20T15:34:02;10.50;97.50
65046;DHT22;54657;52.022;5.534;2023-12-20T15:36:28;10.40;97.60
65046;DHT22;54657;52.022;5.534;2023-12-20T15:38:53;10.40;97.60
65046;DHT22;54657;52.022;5.534;2023-12-20T15:41:20;10.40;97.70
65046;DHT22;54657;52.022;5.534;2023-12-20T15:43:46;10.40;97.80